Time;durP1;ratioP1;P1;durP2;ratioP2;P2;SDS_P1;SDS_P2;PMS_P1;PMS_P2;Temp;Humidity;BMP_temperature;BMP_pressure;BME280_temperature;BME280_humidity;BME280_pressure;Samples;Min_cycle;Max_cycle;Signal;HPM_P1;HPM_P2
2021/12/04 00:01:00;;;;;;;7.65;5.15;;;;;;;3.24;100.00;99998.88;5222970;28;20147;-69
2021/12/04 00:03:30;;;;;;;9.43;5.47;;;;;;;3.23;100.00;99994.56;5222953;28;20044;-69
2021/12/04 00:06:06;;;;;;;10.35;5.85;;;;;;;3.25;100.00;99993.44;5222502;28;20021;-69
2021/12/04 00:08:37;;;;;;;10.90;5.65;;;;;;;3.28;100.00;99989.69;5222881;28;20497;-69
2021/12/04 00:11:07;;;;;;;12.20;5.53;;;;;;;3.29;100.00;99980.75;5220810;28;20029;-69
2021/12/04 00:13:37;;;;;;;12.32;6.45;;;;;;;3.32;100.00;99975.16;5221013;28;20033;-69
2021/12/04 00:16:08;;;;;;;10.40;6.13;;;;;;;3.29;100.00;99968.31;5213484;28;20041;-69
2021/12/04 00:18:39;;;;;;;10.27;5.57;;;;;;;3.30;100.00;99956.72;5222199;28;20025;-69
2021/12/04 00:21:09;;;;;;;8.27;5.28;;;;;;;3.34;100.00;99962.59;5222169;28;20040;-69
2021/12/04 00:23:40;;;;;;;10.85;5.65;;;;;;;3.33;100.00;99955.63;5222701;28;20067;-69
2021/12/04 00:26:10;;;;;;;10.20;5.43;;;;;;;3.34;100.00;99952.81;5221946;28;20017;-69
2021/12/04 00:28:41;;;;;;;10.05;5.70;;;;;;;3.35;100.00;99945.69;5222441;28;20029;-69
2021/12/04 00:31:12;;;;;;;11.23;5.88;;;;;;;3.37;100.00;99935.81;5222216;28;20037;-69
2021/12/04 00:33:45;;;;;;;9.43;5.68;;;;;;;3.41;100.00;99931.03;5222188;28;20117;-69
2021/12/04 00:36:28;;;;;;;9.57;5.82;;;;;;;3.36;100.00;99921.72;5221920;28;20456;-69
2021/12/04 00:50:16;;;;;;;11.25;5.93;;;;;;;3.38;100.00;99908.31;5222039;28;20114;-69
2021/12/04 00:52:46;;;;;;;11.52;6.07;;;;;;;3.38;100.00;99919.75;5221672;28;20437;-69
2021/12/04 00:55:16;;;;;;;11.32;5.55;;;;;;;3.40;100.00;99914.28;5221349;28;20028;-69
2021/12/04 00:57:47;;;;;;;9.85;5.70;;;;;;;3.44;100.00;99918.34;5221640;28;20390;-69
2021/12/04 01:00:18;;;;;;;10.25;5.88;;;;;;;3.42;100.00;99920.31;5221748;28;20036;-69
2021/12/04 01:02:48;;;;;;;12.00;5.18;;;;;;;3.44;100.00;99921.00;5220526;28;20013;-69
2021/12/04 01:05:19;;;;;;;9.68;5.50;;;;;;;3.46;100.00;99920.84;5221124;28;20025;-69
2021/12/04 01:07:49;;;;;;;8.95;5.50;;;;;;;3.45;100.00;99919.19;5221678;28;20056;-69
2021/12/04 01:10:19;;;;;;;11.77;5.50;;;;;;;3.49;100.00;99904.66;5221864;28;20060;-69
2021/12/04 01:12:50;;;;;;;9.38;4.93;;;;;;;3.50;100.00;99895.72;5221064;28;20020;-69
2021/12/04 01:15:20;;;;;;;8.60;5.45;;;;;;;3.49;100.00;99892.22;5220975;28;20025;-69
2021/12/04 01:17:51;;;;;;;8.85;5.15;;;;;;;3.49;100.00;99891.41;5221570;28;20043;-69
2021/12/04 01:20:21;;;;;;;8.82;5.55;;;;;;;3.46;100.00;99894.31;5221299;28;20079;-69
2021/12/04 01:22:52;;;;;;;9.95;5.35;;;;;;;3.48;100.00;99893.22;5221159;28;20500;-69
2021/12/04 01:25:22;;;;;;;8.32;5.07;;;;;;;3.50;100.00;99899.19;5221073;28;20037;-69
2021/12/04 01:27:53;;;;;;;14.43;5.68;;;;;;;3.50;100.00;99901.00;5221157;28;20032;-69
2021/12/04 01:30:23;;;;;;;9.13;5.70;;;;;;;3.50;100.00;99898.38;5221339;28;20507;-69
2021/12/04 01:32:54;;;;;;;8.73;4.82;;;;;;;3.55;100.00;99898.78;5220985;28;20029;-69
2021/12/04 01:35:24;;;;;;;10.60;5.55;;;;;;;3.58;100.00;99904.63;5220613;28;20056;-69
2021/12/04 01:37:55;;;;;;;11.65;5.10;;;;;;;3.58;100.00;99904.63;5220026;28;20040;-69
2021/12/04 01:40:27;;;;;;;7.97;5.07;;;;;;;3.57;100.00;99902.97;5221283;28;20040;-69
2021/12/04 01:42:58;;;;;;;9.93;4.78;;;;;;;3.58;100.00;99901.97;5221050;28;20157;-69
2021/12/04 01:45:28;;;;;;;7.43;4.78;;;;;;;3.59;100.00;99887.72;5220823;28;20017;-69
2021/12/04 01:48:00;;;;;;;9.75;5.65;;;;;;;3.60;100.00;99893.88;5220931;28;20033;-69
2021/12/04 01:50:32;;;;;;;10.85;5.22;;;;;;;3.61;100.00;99887.56;5221015;28;20032;-69
2021/12/04 01:53:03;;;;;;;9.50;5.53;;;;;;;3.63;100.00;99885.63;5221270;28;20025;-69
2021/12/04 01:55:36;;;;;;;10.35;5.72;;;;;;;3.62;100.00;99878.66;5220661;28;20454;-69
2021/12/04 01:58:07;;;;;;;9.63;5.70;;;;;;;3.59;100.00;99874.47;5220901;28;20031;-69
2021/12/04 02:00:40;;;;;;;10.10;6.30;;;;;;;3.60;100.00;99881.44;5233974;28;20041;-69
2021/12/04 02:03:13;;;;;;;10.75;6.20;;;;;;;3.60;100.00;99888.56;5221129;28;20031;-66
2021/12/04 02:05:46;;;;;;;10.73;6.20;;;;;;;3.62;100.00;99883.97;5221113;28;20021;-66
2021/12/04 02:08:19;;;;;;;11.48;6.15;;;;;;;3.62;100.00;99878.66;5221311;28;20025;-66
2021/12/04 02:10:54;;;;;;;10.55;6.22;;;;;;;3.61;100.00;99867.22;5221038;28;20574;-66
2021/12/04 02:13:25;;;;;;;8.82;5.40;;;;;;;3.61;100.00;99861.91;5220884;28;20600;-66
2021/12/04 02:16:17;;;;;;;10.43;6.28;;;;;;;3.60;100.00;99862.88;5220740;28;20128;-67
2021/12/04 02:18:48;;;;;;;10.10;5.97;;;;;;;3.59;100.00;99863.88;5221093;28;20047;-67
2021/12/04 02:21:18;;;;;;;9.55;5.28;;;;;;;3.59;100.00;99852.41;5220025;28;20029;-67
2021/12/04 02:23:49;;;;;;;11.05;5.35;;;;;;;3.59;100.00;99850.59;5220981;28;20021;-67
2021/12/04 02:26:19;;;;;;;9.73;5.65;;;;;;;3.61;100.00;99850.44;5220311;28;20028;-67
2021/12/04 02:28:50;;;;;;;10.00;5.88;;;;;;;3.65;100.00;99841.22;5220812;28;20036;-66
2021/12/04 02:31:20;;;;;;;9.60;5.15;;;;;;;3.66;100.00;99837.59;5220075;28;20118;-66
2021/12/04 02:33:51;;;;;;;11.98;6.50;;;;;;;3.63;100.00;99837.88;5222779;28;20032;-66
2021/12/04 02:36:22;;;;;;;10.27;5.93;;;;;;;3.65;100.00;99827.97;5224311;28;20025;-66
2021/12/04 02:38:52;;;;;;;10.10;6.07;;;;;;;3.63;100.00;99827.28;5224617;28;20036;-69
2021/12/04 02:41:24;;;;;;;11.23;5.50;;;;;;;3.65;100.00;99822.66;5224436;28;20048;-69
2021/12/04 02:43:54;;;;;;;9.43;5.65;;;;;;;3.64;100.00;99821.00;5224773;28;20032;-69
2021/12/04 02:46:33;;;;;;;10.75;6.13;;;;;;;3.63;100.00;99827.28;5223983;28;20029;-69
2021/12/04 02:49:06;;;;;;;11.82;6.43;;;;;;;3.63;100.00;99825.47;5224275;28;20021;-69
2021/12/04 02:51:36;;;;;;;10.50;5.90;;;;;;;3.63;100.00;99821.97;5223116;28;20102;-69
2021/12/04 02:54:11;;;;;;;11.93;5.95;;;;;;;3.68;100.00;99821.53;5224010;28;20509;-69
2021/12/04 02:56:44;;;;;;;14.97;5.57;;;;;;;3.67;100.00;99819.88;5224105;28;20036;-69
2021/12/04 02:59:15;;;;;;;12.95;6.55;;;;;;;3.67;100.00;99819.88;5231037;28;20822;-69
2021/12/04 03:01:46;;;;;;;11.30;5.50;;;;;;;3.69;100.00;99820.56;5230953;28;20123;-69
2021/12/04 03:04:18;;;;;;;9.35;5.45;;;;;;;3.64;100.00;99819.16;5223896;28;20040;-69
2021/12/04 03:06:49;;;;;;;10.75;5.88;;;;;;;3.63;100.00;99821.97;5223099;28;20477;-69
2021/12/04 03:09:20;;;;;;;10.88;6.22;;;;;;;3.63;100.00;99821.97;5223899;28;20423;-69
2021/12/04 03:11:50;;;;;;;11.48;5.55;;;;;;;3.68;100.00;99813.59;5224126;28;20029;-69
2021/12/04 03:14:22;;;;;;;10.93;6.13;;;;;;;3.69;100.00;99810.78;5223623;28;20096;-69
2021/12/04 03:16:52;;;;;;;11.27;5.68;;;;;;;3.71;100.00;99802.66;5223869;28;20094;-69
2021/12/04 03:19:23;;;;;;;13.43;5.95;;;;;;;3.71;100.00;99798.19;5224144;28;20372;-69
2021/12/04 03:21:55;;;;;;;11.65;6.22;;;;;;;3.71;100.00;99790.22;5223435;28;20085;-69
2021/12/04 03:24:26;;;;;;;10.52;5.35;;;;;;;3.67;100.00;99790.69;5223537;28;20032;-69
2021/12/04 03:26:57;;;;;;;14.07;5.50;;;;;;;3.66;100.00;99789.84;5223826;28;20058;-69
2021/12/04 03:29:30;;;;;;;10.10;5.05;;;;;;;3.66;100.00;99778.41;5223377;28;20025;-69
2021/12/04 03:32:23;;;;;;;9.57;4.95;;;;;;;3.66;100.00;99779.22;5223746;28;20070;-69
2021/12/04 03:40:37;;;;;;;7.57;4.78;;;;;;;3.69;100.00;99767.50;5222879;28;20473;-69
2021/12/04 03:43:08;;;;;;;7.63;4.97;;;;;;;3.66;100.00;99765.97;5223873;28;20013;-69
2021/12/04 03:45:43;;;;;;;11.48;5.88;;;;;;;3.66;100.00;99759.81;5221878;28;20056;-69
2021/12/04 03:48:29;;;;;;;10.13;5.25;;;;;;;3.69;100.00;99762.19;5223743;28;20025;-69
2021/12/04 03:51:04;;;;;;;10.23;5.18;;;;;;;3.73;100.00;99761.75;5223165;28;20106;-69
2021/12/04 03:53:35;;;;;;;8.35;4.68;;;;;;;3.66;100.00;99760.66;5221943;28;20116;-69
2021/12/04 03:56:06;;;;;;;8.32;5.15;;;;;;;3.70;100.00;99775.31;5222710;28;20424;-69
2021/12/04 03:58:37;;;;;;;8.18;4.55;;;;;;;3.69;100.00;99770.97;5222835;28;20048;-69
2021/12/04 04:01:08;;;;;;;7.68;4.47;;;;;;;3.74;100.00;99768.72;5223488;28;20029;-69
2021/12/04 04:03:38;;;;;;;10.68;5.68;;;;;;;3.72;100.00;99767.22;5222848;28;20028;-69
2021/12/04 04:06:09;;;;;;;7.68;4.88;;;;;;;3.69;100.00;99768.34;5222932;28;20427;-69
2021/12/04 04:08:40;;;;;;;7.78;4.88;;;;;;;3.72;100.00;99760.09;5223126;28;20025;-69
2021/12/04 04:11:10;;;;;;;7.32;4.38;;;;;;;3.74;100.00;99755.47;5222970;28;20028;-69
2021/12/04 04:13:43;;;;;;;8.75;4.95;;;;;;;3.71;100.00;99750.44;5220584;28;20070;-69
2021/12/04 04:16:14;;;;;;;8.65;4.50;;;;;;;3.72;100.00;99751.31;5214294;28;20071;-69
2021/12/04 04:18:44;;;;;;;7.65;4.40;;;;;;;3.73;100.00;99745.84;5222758;28;20668;-69
2021/12/04 04:21:15;;;;;;;8.65;4.47;;;;;;;3.74;100.00;99744.00;5222379;28;20113;-69
2021/12/04 04:23:45;;;;;;;7.95;4.38;;;;;;;3.75;100.00;99749.16;5222736;28;20433;-69
2021/12/04 04:26:16;;;;;;;7.43;4.57;;;;;;;3.78;100.00;99751.53;5221783;28;20416;-69
2021/12/04 04:28:47;;;;;;;10.20;5.18;;;;;;;3.74;100.00;99749.31;5222755;28;20024;-69
2021/12/04 04:31:17;;;;;;;9.18;4.82;;;;;;;3.71;100.00;99742.47;5222460;28;20060;-69
2021/12/04 04:33:48;;;;;;;13.52;5.22;;;;;;;3.71;100.00;99746.94;5222485;28;20056;-69
2021/12/04 04:36:34;;;;;;;9.85;4.57;;;;;;;3.71;100.00;99750.44;5222340;28;20824;-69
2021/12/04 05:01:31;;;;;;;9.38;4.68;;;;;;;3.80;100.00;99720.38;5221793;28;20059;-69
2021/12/04 05:12:46;;;;;;;10.65;4.70;;;;;;;3.71;100.00;99710.66;5209910;28;20033;-69
2021/12/04 05:15:32;;;;;;;12.38;5.25;;;;;;;3.76;100.00;99708.38;5221351;28;20021;-69
2021/12/04 05:18:09;;;;;;;9.93;5.80;;;;;;;3.76;100.00;99711.03;5221622;28;20493;-69
2021/12/04 05:20:40;;;;;;;9.65;4.93;;;;;;;3.77;100.00;99711.88;5221525;28;20036;-69
2021/12/04 05:23:10;;;;;;;8.73;4.60;;;;;;;3.77;100.00;99707.41;5221747;28;20291;-69
2021/12/04 05:25:41;;;;;;;9.95;4.95;;;;;;;3.75;100.00;99705.88;5221296;28;20396;-69
2021/12/04 05:28:12;;;;;;;8.45;4.18;;;;;;;3.77;100.00;99710.06;5221464;28;20032;-69
2021/12/04 05:30:43;;;;;;;8.82;4.53;;;;;;;3.79;100.00;99712.56;5221205;28;20025;-69
2021/12/04 05:33:13;;;;;;;8.20;4.43;;;;;;;3.77;100.00;99707.41;5220861;28;20033;-69
2021/12/04 05:35:47;;;;;;;9.88;5.15;;;;;;;3.79;100.00;99705.44;5221056;28;20048;-69
2021/12/04 05:38:19;;;;;;;8.23;4.90;;;;;;;3.77;100.00;99704.75;5221265;28;20025;-69
2021/12/04 05:40:50;;;;;;;7.72;4.80;;;;;;;3.76;100.00;99705.72;5221353;28;20272;-69
2021/12/04 05:43:23;;;;;;;8.70;5.00;;;;;;;3.77;100.00;99711.88;5221088;28;20496;-69
2021/12/04 05:46:04;;;;;;;10.80;4.32;;;;;;;3.74;100.00;99707.72;5217844;28;20134;-69
2021/12/04 05:51:24;;;;;;;11.35;4.95;;;;;;;3.75;100.00;99706.72;5220829;28;20025;-69
2021/12/04 05:56:29;;;;;;;8.70;4.72;;;;;;;3.72;100.00;99708.84;5221080;28;20056;-73
2021/12/04 05:59:00;;;;;;;10.57;5.05;;;;;;;3.70;100.00;99706.34;5225824;28;20047;-67
2021/12/04 06:01:31;;;;;;;8.02;5.03;;;;;;;3.70;100.00;99714.28;5229900;28;20029;-69
2021/12/04 06:04:02;;;;;;;22.17;6.20;;;;;;;3.68;100.00;99708.31;5216183;28;20026;-68
2021/12/04 06:06:33;;;;;;;15.52;6.40;;;;;;;3.68;100.00;99716.28;5213024;28;20020;-67
2021/12/04 06:09:05;;;;;;;10.07;5.18;;;;;;;3.72;100.00;99709.69;5223803;28;20040;-67
2021/12/04 06:11:35;;;;;;;8.15;4.78;;;;;;;3.74;100.00;99709.53;5225177;28;20017;-67
2021/12/04 06:14:06;;;;;;;9.18;5.20;;;;;;;3.72;100.00;99708.84;5224844;28;20448;-67
2021/12/04 06:16:37;;;;;;;8.23;4.95;;;;;;;3.76;100.00;99713.69;5224454;28;20024;-67
2021/12/04 06:19:12;;;;;;;8.73;4.95;;;;;;;3.80;100.00;99707.09;5225152;28;20078;-67
2021/12/04 06:24:33;;;;;;;8.82;4.97;;;;;;;3.75;100.00;99716.50;5224407;28;20028;-67
2021/12/04 06:27:03;;;;;;;11.48;5.55;;;;;;;3.82;100.00;99710.44;5224395;28;20052;-67
2021/12/04 06:29:34;;;;;;;11.70;5.78;;;;;;;3.77;100.00;99707.41;5224828;28;20025;-67
2021/12/04 06:32:04;;;;;;;9.65;5.88;;;;;;;3.73;100.00;99710.53;5224563;28;20029;-67
2021/12/04 06:34:35;;;;;;;9.00;5.53;;;;;;;3.75;100.00;99708.53;5224124;28;20496;-67
2021/12/04 06:37:05;;;;;;;10.63;6.03;;;;;;;3.77;100.00;99701.28;5215484;28;20544;-67
2021/12/04 06:39:36;;;;;;;9.05;5.32;;;;;;;3.76;100.00;99700.41;5220905;28;20103;-67
2021/12/04 06:42:07;;;;;;;11.23;5.55;;;;;;;3.77;100.00;99696.81;5224682;28;20075;-68
2021/12/04 06:44:37;;;;;;;10.18;5.82;;;;;;;3.80;100.00;99706.28;5224178;28;20024;-67
2021/12/04 06:47:08;;;;;;;12.60;6.20;;;;;;;3.79;100.00;99705.44;5224861;28;20049;-67
2021/12/04 06:49:42;;;;;;;11.60;5.88;;;;;;;3.79;100.00;99696.66;5224578;28;20479;-68
2021/12/04 06:52:17;;;;;;;11.45;6.38;;;;;;;3.81;100.00;99695.50;5223779;28;20078;-67
2021/12/04 06:54:55;;;;;;;11.10;6.38;;;;;;;3.84;100.00;99702.34;5211538;28;20036;-67
2021/12/04 06:57:28;;;;;;;10.98;6.07;;;;;;;3.82;100.00;99707.81;5224282;28;20028;-67
2021/12/04 06:59:59;;;;;;;15.85;7.40;;;;;;;3.78;100.00;99711.72;5224758;28;20021;-67
2021/12/04 07:02:29;;;;;;;16.50;7.85;;;;;;;3.77;100.00;99701.28;5223735;28;20219;-67
2021/12/04 07:05:00;;;;;;;15.63;8.02;;;;;;;3.77;100.00;99695.97;5223787;28;20024;-67
2021/12/04 07:07:30;;;;;;;17.33;8.60;;;;;;;3.78;100.00;99689.69;5224333;28;20035;-67
2021/12/04 07:10:01;;;;;;;16.95;8.68;;;;;;;3.72;100.00;99687.63;5222626;28;20032;-67
2021/12/04 07:12:31;;;;;;;18.00;8.90;;;;;;;3.68;100.00;99679.13;5223933;28;20058;-67
2021/12/04 07:15:02;;;;;;;16.10;8.20;;;;;;;3.71;100.00;99683.28;5207841;28;20075;-67
2021/12/04 07:17:35;;;;;;;20.73;9.10;;;;;;;3.71;100.00;99683.28;5215549;28;20032;-67
2021/12/04 07:20:07;;;;;;;19.42;9.65;;;;;;;3.67;100.00;99689.91;5222541;28;20032;-68
2021/12/04 07:22:38;;;;;;;18.77;9.75;;;;;;;3.63;100.00;99681.41;5222729;28;20492;-67
2021/12/04 07:25:09;;;;;;;19.73;9.77;;;;;;;3.60;100.00;99687.81;5222309;28;20028;-66
2021/12/04 07:27:41;;;;;;;19.95;9.43;;;;;;;3.64;100.00;99681.25;5222721;28;20435;-67
2021/12/04 07:30:12;;;;;;;20.20;9.55;;;;;;;3.70;100.00;99678.97;5223063;28;20101;-65
2021/12/04 07:32:42;;;;;;;22.73;11.20;;;;;;;3.71;100.00;99688.59;5222514;28;20021;-66
2021/12/04 07:35:14;;;;;;;22.85;10.77;;;;;;;3.67;100.00;99679.28;5222461;28;20183;-67
2021/12/04 07:37:45;;;;;;;25.25;11.75;;;;;;;3.67;100.00;99671.34;5222762;28;20054;-67
2021/12/04 07:40:15;;;;;;;22.77;9.55;;;;;;;3.72;100.00;99675.19;5222791;28;20510;-67
2021/12/04 07:42:46;;;;;;;21.17;10.98;;;;;;;3.76;100.00;99681.03;5222283;28;20496;-65
2021/12/04 07:45:16;;;;;;;21.42;10.25;;;;;;;3.73;100.00;99666.25;5222321;28;20147;-67
2021/12/04 07:47:47;;;;;;;21.05;11.27;;;;;;;3.73;100.00;99665.44;5222596;28;20021;-66
2021/12/04 07:50:18;;;;;;;25.20;11.65;;;;;;;3.74;100.00;99667.91;5222128;28;20104;-68
2021/12/04 07:52:49;;;;;;;23.58;11.63;;;;;;;3.72;100.00;99659.28;5221698;28;20055;-69
2021/12/04 07:55:20;;;;;;;22.90;11.35;;;;;;;3.74;100.00;99649.34;5221717;28;20401;-68
2021/12/04 07:57:51;;;;;;;23.70;11.05;;;;;;;3.77;100.00;99643.75;5222083;28;20039;-69
2021/12/04 08:00:23;;;;;;;22.85;11.40;;;;;;;3.75;100.00;99643.06;5222507;28;20151;-68
2021/12/04 08:02:54;;;;;;;24.05;11.48;;;;;;;3.78;100.00;99633.97;5221478;28;20021;-68
2021/12/04 08:05:24;;;;;;;23.55;11.10;;;;;;;3.81;100.00;99629.16;5221789;28;20373;-67
2021/12/04 08:07:56;;;;;;;23.65;10.68;;;;;;;3.82;100.00;99633.50;5222045;28;20043;-68
2021/12/04 08:10:26;;;;;;;24.17;10.65;;;;;;;3.79;100.00;99636.47;5222308;28;20554;-69
2021/12/04 08:12:59;;;;;;;23.02;10.82;;;;;;;3.83;100.00;99642.31;5221605;28;20056;-69
2021/12/04 08:15:31;;;;;;;21.20;10.85;;;;;;;3.89;100.00;99639.03;5221115;28;20021;-67
2021/12/04 08:18:02;;;;;;;20.27;10.07;;;;;;;3.88;100.00;99642.69;5222129;28;20025;-68
2021/12/04 08:20:33;;;;;;;22.00;10.27;;;;;;;3.86;100.00;99634.84;5221689;28;20083;-68
2021/12/04 08:23:04;;;;;;;19.08;10.35;;;;;;;3.90;100.00;99641.53;5221783;28;20021;-69
2021/12/04 08:25:35;;;;;;;18.20;9.27;;;;;;;3.90;100.00;99638.88;5221217;28;20025;-69
2021/12/04 08:28:06;;;;;;;19.98;9.13;;;;;;;3.93;100.00;99627.13;5221251;28;20132;-68
2021/12/04 08:30:40;;;;;;;21.38;9.02;;;;;;;3.92;100.00;99619.34;5221037;28;20382;-68
2021/12/04 08:33:12;;;;;;;18.85;9.15;;;;;;;3.99;100.00;99615.06;5221442;28;20377;-69
2021/12/04 08:35:43;;;;;;;24.73;8.15;;;;;;;3.98;100.00;99603.63;5220825;28;20021;-68
2021/12/04 08:38:16;;;;;;;18.40;9.45;;;;;;;3.99;100.00;99591.19;5221295;28;20111;-70
2021/12/04 08:40:47;;;;;;;17.05;9.18;;;;;;;4.08;100.00;99584.94;5221036;28;20119;-69
2021/12/04 08:43:18;;;;;;;15.90;8.27;;;;;;;4.15;100.00;99578.03;5221216;28;20033;-70
2021/12/04 08:45:48;;;;;;;16.92;8.27;;;;;;;4.30;100.00;99578.28;5220818;28;20021;-68
2021/12/04 08:48:19;;;;;;;13.57;7.43;;;;;;;4.46;100.00;99588.16;5221547;28;20025;-69
2021/12/04 08:50:49;;;;;;;14.57;7.57;;;;;;;4.68;100.00;99595.59;5220827;28;20025;-69
2021/12/04 08:53:20;;;;;;;13.38;7.45;;;;;;;4.81;100.00;99598.63;5220945;28;20032;-70
2021/12/04 08:55:51;;;;;;;14.25;6.45;;;;;;;4.79;100.00;99603.28;5219289;28;20112;-70
2021/12/04 08:58:22;;;;;;;12.00;5.93;;;;;;;4.62;100.00;99598.91;5220048;28;20033;-69
2021/12/04 09:00:57;;;;;;;11.15;6.30;;;;;;;4.60;100.00;99611.47;5220993;28;20036;-68
2021/12/04 09:03:32;;;;;;;10.35;5.88;;;;;;;4.58;100.00;99605.50;5220573;28;20040;-69
2021/12/04 09:06:05;;;;;;;9.40;5.43;;;;;;;4.48;100.00;99602.13;5220644;28;20025;-70
2021/12/04 09:08:36;;;;;;;11.30;6.53;;;;;;;4.47;100.00;99606.63;5221105;28;20029;-70
2021/12/04 09:11:13;;;;;;;9.23;5.68;;;;;;;4.41;100.00;99609.88;5221198;28;20028;-70
2021/12/04 09:13:46;;;;;;;13.27;6.80;;;;;;;4.40;100.00;99611.69;5215807;28;20113;-69
2021/12/04 09:16:17;;;;;;;11.43;6.57;;;;;;;4.40;100.00;99617.00;5220142;28;20032;-67
2021/12/04 09:18:48;;;;;;;17.65;7.35;;;;;;;4.45;100.00;99608.56;5220285;28;20024;-67
2021/12/04 09:21:19;;;;;;;14.35;7.50;;;;;;;4.47;100.00;99608.41;5220693;28;20029;-66
2021/12/04 09:24:00;;;;;;;13.32;6.78;;;;;;;4.44;100.00;99606.09;5220332;28;20021;-67
2021/12/04 09:26:41;;;;;;;14.98;7.53;;;;;;;4.41;100.00;99593.94;5220103;28;20094;-67
2021/12/04 09:29:28;;;;;;;11.75;6.43;;;;;;;4.35;100.00;99598.06;5220947;28;20032;-67
2021/12/04 09:32:23;;;;;;;14.93;7.50;;;;;;;4.41;100.00;99592.13;5209156;28;20028;-67
2021/12/04 09:35:07;;;;;;;16.92;7.97;;;;;;;4.45;100.00;99584.69;5219926;28;20025;-68
2021/12/04 09:59:12;;;;;;;13.32;6.57;;;;;;;4.40;100.00;99585.16;5220671;28;20059;-68
2021/12/04 10:01:12;;;;;;;12.23;6.85;;;;;;;4.53;100.00;99567.97;5206538;28;20052;-68
2021/12/04 10:12:06;;;;;;;11.95;6.18;;;;;;;4.66;100.00;99561.19;5220023;28;20029;-68
2021/12/04 10:14:56;;;;;;;12.75;6.47;;;;;;;4.68;100.00;99563.72;5219475;28;20025;-68
2021/12/04 10:20:18;;;;;;;15.32;7.20;;;;;;;4.75;100.00;99546.13;5219951;28;20040;-69
2021/12/04 10:23:08;;;;;;;17.33;6.25;;;;;;;4.83;100.00;99542.69;5219636;28;20021;-70
2021/12/04 10:33:58;;;;;;;14.40;6.78;;;;;;;4.84;100.00;99534.53;5219780;28;20028;-69
2021/12/04 10:36:33;;;;;;;12.30;5.90;;;;;;;4.76;100.00;99523.88;5219695;28;20021;-70
2021/12/04 10:39:06;;;;;;;11.07;4.97;;;;;;;4.77;100.00;99519.41;5219715;28;20063;-70
2021/12/04 10:41:42;;;;;;;10.02;5.30;;;;;;;4.76;100.00;99509.75;5219872;28;20029;-70
2021/12/04 10:44:15;;;;;;;10.35;5.18;;;;;;;4.76;100.00;99504.44;5217786;28;20092;-70
2021/12/04 10:46:56;;;;;;;11.82;4.90;;;;;;;4.65;100.00;99509.06;5219634;28;20033;-70
2021/12/04 10:49:36;;;;;;;10.50;5.30;;;;;;;4.71;100.00;99504.94;5220430;28;20021;-70
2021/12/04 10:52:33;;;;;;;11.43;5.85;;;;;;;4.64;100.00;99514.56;5219681;28;20087;-70
2021/12/04 11:03:33;;;;;;;15.32;6.00;;;;;;;4.59;100.00;99508.88;5223235;28;20576;-70
2021/12/04 11:22:55;;;;;;;15.68;7.47;;;;;;;4.39;100.00;99514.44;5223298;28;20071;-69
2021/12/04 11:28:25;;;;;;;14.00;7.47;;;;;;;4.39;100.00;99519.75;5222550;28;20035;-69
2021/12/04 11:36:55;;;;;;;23.80;8.85;;;;;;;4.37;100.00;99515.63;5222514;28;20028;-69
2021/12/04 11:39:54;;;;;;;22.95;9.98;;;;;;;4.40;100.00;99515.28;5222635;28;20111;-69
2021/12/04 11:42:24;;;;;;;22.20;10.05;;;;;;;4.37;100.00;99505.81;5221125;28;20021;-68
2021/12/04 11:45:11;;;;;;;28.30;11.77;;;;;;;4.39;100.00;99511.78;5222107;28;20028;-69
2021/12/04 11:47:47;;;;;;;33.40;17.80;;;;;;;4.44;100.00;99513.16;5222475;28;20028;-69
2021/12/04 11:50:29;;;;;;;30.40;12.73;;;;;;;4.42;100.00;99513.31;5221991;28;20040;-69
2021/12/04 11:53:04;;;;;;;25.30;11.27;;;;;;;4.45;100.00;99510.31;5208884;28;20048;-69
2021/12/04 11:55:38;;;;;;;31.92;12.18;;;;;;;4.44;100.00;99502.53;5221985;28;20240;-69
2021/12/04 11:58:27;;;;;;;29.35;12.35;;;;;;;4.47;100.00;99497.72;5222195;28;20028;-68
2021/12/04 12:01:03;;;;;;;30.10;12.18;;;;;;;4.56;100.00;99493.25;5209100;28;20497;-69
2021/12/04 12:03:35;;;;;;;28.77;11.15;;;;;;;4.57;100.00;99489.63;5222114;28;20017;-69
2021/12/04 12:06:10;;;;;;;28.17;10.50;;;;;;;4.60;100.00;99486.63;5220594;28;20033;-69
2021/12/04 12:08:43;;;;;;;27.20;10.57;;;;;;;4.63;100.00;99475.69;5222109;28;20025;-68
2021/12/04 12:11:24;;;;;;;24.05;9.60;;;;;;;4.72;100.00;99474.75;5222129;28;20029;-69
2021/12/04 12:14:04;;;;;;;21.30;7.68;;;;;;;4.75;100.00;99470.91;5209450;28;20021;-69
2021/12/04 12:16:40;;;;;;;21.10;8.13;;;;;;;4.75;100.00;99471.75;5221728;28;20032;-70
2021/12/04 12:19:25;;;;;;;33.55;16.42;;;;;;;4.75;100.00;99469.09;5221349;28;20055;-69
2021/12/04 12:22:07;;;;;;;180.50;65.07;;;;;;;4.81;100.00;99465.78;5221914;28;20471;-69
2021/12/04 12:38:43;;;;;;;20.00;8.75;;;;;;;4.94;100.00;99479.44;5210206;28;20039;-69
2021/12/04 12:41:15;;;;;;;18.23;7.35;;;;;;;5.01;100.00;99478.75;5221161;28;20025;-69
2021/12/04 12:43:49;;;;;;;18.08;7.60;;;;;;;4.96;100.00;99481.91;5220942;28;20509;-69
2021/12/04 12:46:31;;;;;;;17.65;7.13;;;;;;;5.01;100.00;99481.41;5220734;28;20094;-69
2021/12/04 12:49:05;;;;;;;20.73;7.97;;;;;;;5.03;100.00;99482.09;5221366;28;20032;-69
2021/12/04 12:51:36;;;;;;;21.25;7.90;;;;;;;5.00;100.00;99477.09;5219844;28;20366;-68
2021/12/04 12:54:07;;;;;;;20.08;8.15;;;;;;;5.01;100.00;99479.59;5220666;28;20033;-68
2021/12/04 12:56:37;;;;;;;20.27;8.10;;;;;;;4.97;100.00;99486.25;5221313;28;20075;-67
2021/12/04 12:59:35;;;;;;;21.83;8.23;;;;;;;5.11;100.00;99479.44;5220787;28;20017;-68
2021/12/04 13:13:36;;;;;;;79.20;38.05;;;;;;;4.97;100.00;99477.44;5219580;28;20060;-68
2021/12/04 13:16:16;;;;;;;46.22;19.65;;;;;;;4.96;100.00;99492.53;5220615;28;20466;-68
2021/12/04 13:18:55;;;;;;;46.05;20.70;;;;;;;5.03;100.00;99490.91;5207847;28;20033;-69
2021/12/04 13:21:27;;;;;;;41.10;17.77;;;;;;;5.04;100.00;99491.75;5220513;28;20520;-69
2021/12/04 13:23:58;;;;;;;28.77;12.68;;;;;;;5.11;100.00;99493.56;5220190;28;20079;-70
2021/12/04 13:26:33;;;;;;;31.40;10.15;;;;;;;5.05;100.00;99496.06;5220135;28;20028;-67
2021/12/04 13:29:06;;;;;;;32.25;12.82;;;;;;;5.05;100.00;99493.41;5220592;28;20021;-67
2021/12/04 13:31:38;;;;;;;28.15;12.02;;;;;;;5.08;100.00;99487.75;5220292;28;20082;-67
2021/12/04 13:34:12;;;;;;;35.70;14.23;;;;;;;5.10;100.00;99491.91;5219473;28;20033;-67
2021/12/04 13:36:45;;;;;;;27.87;10.57;;;;;;;5.16;100.00;99496.56;5220890;28;20035;-67
2021/12/04 13:39:18;;;;;;;44.83;17.70;;;;;;;5.09;100.00;99497.41;5220419;28;20099;-69
2021/12/04 13:41:52;;;;;;;35.15;15.95;;;;;;;5.07;100.00;99515.31;5220465;28;20056;-69
2021/12/04 13:44:25;;;;;;;37.65;15.32;;;;;;;5.06;100.00;99518.97;5219857;28;20032;-69
2021/12/04 13:47:02;;;;;;;31.10;13.77;;;;;;;5.11;100.00;99512.16;5220030;28;20086;-70
2021/12/04 13:49:37;;;;;;;33.40;14.77;;;;;;;5.09;100.00;99510.69;5220334;28;20025;-69
2021/12/04 13:52:12;;;;;;;32.90;12.55;;;;;;;5.23;100.00;99515.38;5220182;28;20032;-68
2021/12/04 13:54:47;;;;;;;31.45;15.38;;;;;;;5.19;100.00;99519.34;5219803;28;20518;-69
2021/12/04 13:57:18;;;;;;;33.28;12.85;;;;;;;5.26;100.00;99530.16;5220307;28;20036;-68
2021/12/04 13:59:49;;;;;;;34.35;14.05;;;;;;;5.23;100.00;99530.50;5231674;28;20489;-69
2021/12/04 14:02:24;;;;;;;34.15;13.32;;;;;;;5.26;100.00;99532.81;5220857;28;20493;-70
2021/12/04 14:05:05;;;;;;;33.03;13.90;;;;;;;5.25;100.00;99534.63;5220156;28;20025;-68
2021/12/04 14:07:36;;;;;;;34.13;14.32;;;;;;;5.26;100.00;99532.81;5219968;28;20028;-69
2021/12/04 14:10:13;;;;;;;37.35;13.95;;;;;;;5.18;100.00;99538.97;5219988;28;20136;-68
2021/12/04 14:12:44;;;;;;;51.65;19.90;;;;;;;5.25;100.00;99545.28;5218063;28;20028;-68
2021/12/04 14:15:17;;;;;;;289.55;104.40;;;;;;;5.29;100.00;99557.25;5216375;28;20108;-68
2021/12/04 14:17:50;;;;;;;150.88;70.10;;;;;;;5.27;100.00;99559.25;5220035;28;20025;-67
2021/12/04 14:20:24;;;;;;;48.92;22.85;;;;;;;5.27;100.00;99553.94;5220163;28;20035;-68
2021/12/04 14:22:56;;;;;;;44.60;17.55;;;;;;;5.34;100.00;99554.94;5219838;28;20029;-69
2021/12/04 14:25:28;;;;;;;26.77;11.40;;;;;;;5.39;100.00;99552.63;5219849;28;20048;-68
2021/12/04 14:27:59;;;;;;;37.25;13.88;;;;;;;5.38;100.00;99566.09;5219907;28;20025;-68